Rio, Illinois
Current Conditions -  °F | °C
As of 10:55 PM on Friday 19 Dec 2014 (Local Time) from KGBG Reporting Station
Overcast Overcast  
Wind Chill: 29°   Ceiling: 5000
Heat Index: 29°   Visibility: 10mi
Dew Point: 25°   Wind: 3mph
Humidity: 84%   Direction: 150°SSE
Pressure: 30.26"   Gusts: NA
Location:  41.11°N, 90.4°W
Report Text: KGBG 200455Z AUTO 15003KT 10SM OVC050 M02/M04 A3026 RMK AO2 T10171040
Loading
Personal Weather Stations






























Interactive Weather Map New forecast layout! Learn more

10-Day Weather Forecast

Advertisements
Track Severe Weather on mobile